Snoqualmie River: Carnation station

back to: Snoqualmie river
Carnation station Summary - (NOAA Hydrograph: CRNW1)
flood stage: 54.0 ft
Latest reading:
Sun08/09 06:15 am 45.76 ft 919 cfs (steady)
Past 24hr max:
Sat08/08 06:15 am 45.81 ft 976 cfs
Forecasted crests: (published Sat 08/08/20 08:36 am)
Fri08/14 05:00 am 45.61 ft 754 cfs
Mon08/17 11:00 pm 46.19 ft 1450 cfs

Carnation station Details

Latest Readings

Last 100 Readings:
Sun08/09 06:15 am 45.76 ft 919 cfs
Sun08/09 06:00 am 45.76 ft 919 cfs
Sun08/09 05:45 am 45.76 ft 919 cfs
Sun08/09 05:30 am 45.76 ft 919 cfs
Sun08/09 05:15 am 45.76 ft 919 cfs
Sun08/09 05:00 am 45.76 ft 919 cfs
Sun08/09 04:45 am 45.76 ft 919 cfs
Sun08/09 04:30 am 45.76 ft 919 cfs
Sun08/09 04:15 am 45.76 ft 919 cfs
Sun08/09 04:00 am 45.76 ft 919 cfs
Sun08/09 03:45 am 45.76 ft 919 cfs
Sun08/09 03:30 am 45.76 ft 919 cfs
Sun08/09 03:15 am 45.76 ft 919 cfs
Sun08/09 03:00 am 45.76 ft 919 cfs
Sun08/09 02:45 am 45.76 ft 919 cfs
Sun08/09 02:30 am 45.76 ft 919 cfs
Sun08/09 02:15 am 45.76 ft 919 cfs
Sun08/09 02:00 am 45.76 ft 919 cfs
Sun08/09 01:45 am 45.76 ft 919 cfs
Sun08/09 01:30 am 45.76 ft 919 cfs
Sun08/09 01:15 am 45.76 ft 919 cfs
Sun08/09 01:00 am 45.76 ft 919 cfs
Sun08/09 12:45 am 45.76 ft 919 cfs
Sun08/09 12:30 am 45.76 ft 919 cfs
Sun08/09 12:15 am 45.76 ft 919 cfs
Sun08/09 12:00 am 45.76 ft 919 cfs
Sat08/08 11:45 pm 45.76 ft 919 cfs
Sat08/08 11:30 pm 45.76 ft 919 cfs
Sat08/08 11:15 pm 45.76 ft 919 cfs
Sat08/08 11:00 pm 45.76 ft 919 cfs
Sat08/08 10:45 pm 45.77 ft 930 cfs
Sat08/08 10:30 pm 45.76 ft 919 cfs
Sat08/08 10:15 pm 45.76 ft 919 cfs
Sat08/08 10:00 pm 45.77 ft 930 cfs
Sat08/08 09:45 pm 45.76 ft 919 cfs
Sat08/08 09:30 pm 45.76 ft 919 cfs
Sat08/08 09:15 pm 45.76 ft 919 cfs
Sat08/08 09:00 pm 45.76 ft 919 cfs
Sat08/08 08:45 pm 45.76 ft 919 cfs
Sat08/08 08:30 pm 45.76 ft 919 cfs
Sat08/08 08:15 pm 45.76 ft 919 cfs
Sat08/08 08:00 pm 45.76 ft 919 cfs
Sat08/08 07:45 pm 45.76 ft 919 cfs
Sat08/08 07:30 pm 45.76 ft 919 cfs
Sat08/08 07:15 pm 45.76 ft 919 cfs
Sat08/08 07:00 pm 45.76 ft 919 cfs
Sat08/08 06:45 pm 45.76 ft 919 cfs
Sat08/08 06:30 pm 45.76 ft 919 cfs
Sat08/08 06:15 pm 45.76 ft 919 cfs
Sat08/08 06:00 pm 45.76 ft 919 cfs
Sat08/08 05:45 pm 45.76 ft 919 cfs
Sat08/08 05:30 pm 45.77 ft 930 cfs
Sat08/08 05:15 pm 45.76 ft 919 cfs
Sat08/08 05:00 pm 45.77 ft 930 cfs
Sat08/08 04:45 pm 45.77 ft 930 cfs
Sat08/08 04:30 pm 45.77 ft 930 cfs
Sat08/08 04:15 pm 45.77 ft 930 cfs
Sat08/08 04:00 pm 45.77 ft 930 cfs
Sat08/08 03:45 pm 45.77 ft 930 cfs
Sat08/08 03:30 pm 45.78 ft 942 cfs
Sat08/08 03:15 pm 45.78 ft 942 cfs
Sat08/08 03:00 pm 45.78 ft 942 cfs
Sat08/08 02:45 pm 45.78 ft 942 cfs
Sat08/08 02:30 pm 45.78 ft 942 cfs
Sat08/08 02:15 pm 45.78 ft 942 cfs
Sat08/08 02:00 pm 45.78 ft 942 cfs
Sat08/08 01:45 pm 45.78 ft 942 cfs
Sat08/08 01:30 pm 45.79 ft 953 cfs
Sat08/08 01:15 pm 45.79 ft 953 cfs
Sat08/08 01:00 pm 45.79 ft 953 cfs
Sat08/08 12:45 pm 45.79 ft 953 cfs
Sat08/08 12:30 pm 45.79 ft 953 cfs
Sat08/08 12:15 pm 45.77 ft 930 cfs
Sat08/08 12:00 pm 45.76 ft 919 cfs
Sat08/08 11:45 am 45.77 ft 930 cfs
Sat08/08 11:30 am 45.79 ft 953 cfs
Sat08/08 11:15 am 45.79 ft 953 cfs
Sat08/08 11:00 am 45.79 ft 953 cfs
Sat08/08 10:45 am 45.79 ft 953 cfs
Sat08/08 10:30 am 45.79 ft 953 cfs
Sat08/08 10:15 am 45.79 ft 953 cfs
Sat08/08 10:00 am 45.79 ft 953 cfs
Sat08/08 09:45 am 45.79 ft 953 cfs
Sat08/08 09:30 am 45.8 ft 964 cfs
Sat08/08 09:15 am 45.8 ft 964 cfs
Sat08/08 09:00 am 45.8 ft 964 cfs
Sat08/08 08:45 am 45.8 ft 964 cfs
Sat08/08 08:30 am 45.8 ft 964 cfs
Sat08/08 08:15 am 45.8 ft 964 cfs
Sat08/08 08:00 am 45.8 ft 964 cfs
Sat08/08 07:45 am 45.8 ft 964 cfs
Sat08/08 07:30 am 45.8 ft 964 cfs
Sat08/08 07:15 am 45.8 ft 964 cfs
Sat08/08 07:00 am 45.8 ft 964 cfs
Sat08/08 06:45 am 45.81 ft 976 cfs
Sat08/08 06:30 am 45.81 ft 976 cfs
Sat08/08 06:15 am 45.81 ft 976 cfs
Sat08/08 06:00 am 45.81 ft 976 cfs
Sat08/08 05:45 am 45.81 ft 976 cfs
Sat08/08 05:30 am 45.81 ft 976 cfs

Latest Forecasts

Currently Forecasted Readings:
Sat08/08 11:00 am 45.79 ft 954 cfs
Sat08/08 05:00 pm 45.77 ft 929 cfs
Sat08/08 11:00 pm 45.75 ft 905 cfs
Sun08/09 05:00 am 45.73 ft 885 cfs
Sun08/09 11:00 am 45.71 ft 868 cfs
Sun08/09 05:00 pm 45.7 ft 853 cfs
Sun08/09 11:00 pm 45.69 ft 842 cfs
Mon08/10 05:00 am 45.68 ft 834 cfs
Mon08/10 11:00 am 45.68 ft 826 cfs
Mon08/10 05:00 pm 45.67 ft 817 cfs
Mon08/10 11:00 pm 45.66 ft 809 cfs
Tue08/11 05:00 am 45.65 ft 804 cfs
Tue08/11 11:00 am 45.65 ft 799 cfs
Tue08/11 05:00 pm 45.64 ft 791 cfs
Tue08/11 11:00 pm 45.64 ft 785 cfs
Wed08/12 05:00 am 45.63 ft 780 cfs
Wed08/12 11:00 am 45.63 ft 775 cfs
Wed08/12 05:00 pm 45.62 ft 770 cfs
Wed08/12 11:00 pm 45.62 ft 765 cfs
Thu08/13 05:00 am 45.61 ft 761 cfs
Thu08/13 11:00 am 45.61 ft 758 cfs
Thu08/13 05:00 pm 45.61 ft 755 cfs
Thu08/13 11:00 pm 45.61 ft 753 cfs
Fri08/14 05:00 am 45.61 ft 754 cfs
Fri08/14 11:00 am 45.61 ft 754 cfs
Fri08/14 05:00 pm 45.6 ft 750 cfs
Fri08/14 11:00 pm 45.6 ft 746 cfs
Sat08/15 05:00 am 45.6 ft 744 cfs
Sat08/15 11:00 am 45.59 ft 742 cfs
Sat08/15 05:00 pm 45.59 ft 739 cfs
Sat08/15 11:00 pm 45.59 ft 738 cfs
Sun08/16 05:00 am 45.59 ft 742 cfs
Sun08/16 11:00 am 45.63 ft 780 cfs
Sun08/16 05:00 pm 45.68 ft 831 cfs
Sun08/16 11:00 pm 45.74 ft 894 cfs
Mon08/17 05:00 am 45.91 ft 1087 cfs
Mon08/17 11:00 am 46.1 ft 1336 cfs
Mon08/17 05:00 pm 46.17 ft 1432 cfs
Mon08/17 11:00 pm 46.19 ft 1450 cfs
Tue08/18 05:00 am 46.16 ft 1416 cfs

Snoqualmie River flood gauge data supplied by the
National Weather Service Northwest River Forecast Center.

Sign up for Floodzilla alerts.